Time;durP1;ratioP1;P1;durP2;ratioP2;P2;SDS_P1;SDS_P2;PMS_P1;PMS_P2;Temp;Humidity;BMP_temperature;BMP_pressure;BME280_temperature;BME280_humidity;BME280_pressure;Samples;Min_cycle;Max_cycle;Signal;HPM_P1;HPM_P2
2022/08/15 00:00:49;;;;;;;3.58;2.75;;;29.50;43.00;;;;;;4996895;28;20429;-83
2022/08/15 00:03:29;;;;;;;4.07;2.33;;;29.50;43.00;;;;;;5014108;28;20095;-82
2022/08/15 00:05:59;;;;;;;3.53;2.58;;;29.50;43.10;;;;;;5014811;28;20037;-83
2022/08/15 00:08:28;;;;;;;2.90;2.60;;;29.40;43.00;;;;;;4996685;28;20058;-83
2022/08/15 00:11:00;;;;;;;2.90;2.60;;;29.40;43.10;;;;;;4980786;28;20080;-86
2022/08/15 00:13:28;;;;;;;2.97;2.60;;;29.40;43.20;;;;;;4980132;28;20026;-85
2022/08/15 00:15:55;;;;;;;3.53;2.63;;;29.40;43.10;;;;;;4980577;28;20045;-83
2022/08/15 00:18:27;;;;;;;3.08;2.60;;;29.40;43.20;;;;;;4981132;28;20092;-83
2022/08/15 00:20:55;;;;;;;3.95;2.50;;;29.30;43.20;;;;;;4996826;28;20029;-83
2022/08/15 00:23:23;;;;;;;3.40;2.70;;;29.30;43.20;;;;;;5014282;28;20034;-84
2022/08/15 00:25:59;;;;;;;3.30;2.72;;;29.30;43.20;;;;;;5002407;28;20057;-86
2022/08/15 00:28:27;;;;;;;3.40;2.58;;;29.30;43.20;;;;;;5024859;28;20175;-82
2022/08/15 00:30:53;;;;;;;3.92;2.60;;;29.30;43.30;;;;;;4992576;28;20115;-84
2022/08/15 00:33:20;;;;;;;3.28;2.65;;;29.20;43.30;;;;;;4985948;28;20407;-85
2022/08/15 00:35:50;;;;;;;3.67;3.10;;;29.20;43.30;;;;;;5006293;28;20036;-83
2022/08/15 00:38:22;;;;;;;3.03;2.42;;;29.20;43.40;;;;;;4981259;28;20037;-84
2022/08/15 00:43:42;;;;;;;3.58;2.70;;;29.20;43.40;;;;;;4996902;28;20030;-83
2022/08/15 00:46:11;;;;;;;3.30;2.67;;;29.20;43.40;;;;;;5013782;28;20100;-83
2022/08/15 00:48:43;;;;;;;3.55;2.65;;;29.10;43.40;;;;;;4996851;28;20042;-84
2022/08/15 00:51:27;;;;;;;3.30;2.80;;;29.10;43.40;;;;;;4996328;28;20352;-84
2022/08/15 00:54:06;;;;;;;3.67;2.78;;;29.10;43.50;;;;;;4997580;28;20497;-82
2022/08/15 00:56:45;;;;;;;3.30;2.60;;;29.00;43.40;;;;;;4996411;28;20466;-84
2022/08/15 00:59:15;;;;;;;3.47;2.88;;;29.00;43.40;;;;;;4980205;28;20375;-84
2022/08/15 01:01:43;;;;;;;3.67;2.88;;;29.00;43.50;;;;;;4996194;28;20140;-84
2022/08/15 01:04:14;;;;;;;3.35;2.88;;;29.00;43.50;;;;;;4996386;28;20104;-83
2022/08/15 01:06:42;;;;;;;3.90;2.90;;;29.00;43.60;;;;;;4980059;28;20466;-84
2022/08/15 01:09:09;;;;;;;2.90;2.55;;;29.00;43.60;;;;;;4995687;28;20029;-86
2022/08/15 01:12:02;;;;;;;2.88;2.53;;;28.90;43.50;;;;;;4979354;28;20132;-84
2022/08/15 01:14:31;;;;;;;3.08;2.67;;;28.90;43.70;;;;;;4995783;28;20065;-82
2022/08/15 01:16:59;;;;;;;3.40;2.60;;;28.80;43.50;;;;;;4996433;28;20432;-82
2022/08/15 01:19:36;;;;;;;3.85;2.88;;;28.90;43.60;;;;;;4996178;28;20410;-84
2022/08/15 01:22:17;;;;;;;3.05;2.47;;;28.80;43.70;;;;;;4980693;28;20038;-83
2022/08/15 01:25:13;;;;;;;3.70;3.00;;;28.80;43.70;;;;;;4996253;28;20033;-83
2022/08/15 01:27:51;;;;;;;3.72;2.97;;;28.80;43.80;;;;;;5013322;28;20030;-82
2022/08/15 01:30:23;;;;;;;3.97;3.03;;;28.80;43.70;;;;;;4995966;28;20026;-84
2022/08/15 01:32:54;;;;;;;3.35;2.83;;;28.80;43.80;;;;;;4995346;28;20046;-85
2022/08/15 01:35:20;;;;;;;4.80;2.95;;;28.70;43.70;;;;;;4995542;28;20068;-83
2022/08/15 01:37:51;;;;;;;3.72;2.63;;;28.70;43.80;;;;;;4995874;28;20041;-83
2022/08/15 01:40:46;;;;;;;3.53;2.50;;;28.70;43.80;;;;;;4963918;28;20038;-82
2022/08/15 01:43:12;;;;;;;3.35;2.55;;;28.70;43.90;;;;;;4996660;28;20453;-82
2022/08/15 01:45:43;;;;;;;3.35;2.78;;;28.70;43.80;;;;;;4982919;28;20455;-83
2022/08/15 01:48:41;;;;;;;3.20;2.67;;;28.70;43.90;;;;;;4983437;28;20049;-83
2022/08/15 01:51:10;;;;;;;3.00;2.50;;;28.60;43.90;;;;;;4982282;28;20033;-85
2022/08/15 01:53:55;;;;;;;3.38;2.85;;;28.60;43.90;;;;;;4998473;28;20034;-83
2022/08/15 01:56:31;;;;;;;3.20;2.67;;;28.60;44.00;;;;;;4982782;28;20427;-83
2022/08/15 01:59:02;;;;;;;3.17;2.47;;;28.60;43.90;;;;;;4998227;28;20025;-83
2022/08/15 02:01:55;;;;;;;3.50;2.85;;;28.60;44.00;;;;;;5015960;28;20040;-83
2022/08/15 02:04:32;;;;;;;3.50;2.83;;;28.60;44.10;;;;;;4998958;28;20030;-83
2022/08/15 02:07:04;;;;;;;3.15;2.58;;;28.50;44.00;;;;;;4982730;28;20461;-83
2022/08/15 02:09:30;;;;;;;3.47;2.88;;;28.50;44.00;;;;;;4998694;28;20026;-84
2022/08/15 02:12:00;;;;;;;3.47;2.75;;;28.50;44.00;;;;;;4998340;28;20073;-84
2022/08/15 02:14:27;;;;;;;3.90;2.90;;;28.50;44.10;;;;;;4998798;28;20030;-83
2022/08/15 02:16:53;;;;;;;3.80;3.00;;;28.50;44.10;;;;;;4982505;28;20069;-86
2022/08/15 02:19:20;;;;;;;3.25;2.70;;;28.50;44.20;;;;;;4985631;28;20026;-83
2022/08/15 02:21:48;;;;;;;4.03;3.00;;;28.50;44.20;;;;;;4994961;28;20105;-82
2022/08/15 02:24:21;;;;;;;3.65;3.05;;;28.40;44.20;;;;;;4979221;28;20034;-81
2022/08/15 02:26:52;;;;;;;3.55;2.92;;;28.40;44.20;;;;;;4999602;28;20454;-82
2022/08/15 02:29:26;;;;;;;3.63;2.67;;;28.40;44.20;;;;;;4983826;28;20026;-82
2022/08/15 02:32:00;;;;;;;3.55;2.53;;;28.40;44.20;;;;;;4998437;28;20042;-84
2022/08/15 02:34:28;;;;;;;3.67;2.80;;;28.30;44.20;;;;;;4998052;28;20037;-83
2022/08/15 02:36:55;;;;;;;3.40;2.90;;;28.30;44.20;;;;;;4998192;28;20090;-85
2022/08/15 02:39:23;;;;;;;3.53;2.67;;;28.30;44.30;;;;;;4982088;28;20052;-86
2022/08/15 02:41:51;;;;;;;4.32;3.00;;;28.30;44.30;;;;;;4981778;28;20529;-84
2022/08/15 02:44:20;;;;;;;3.35;2.80;;;28.30;44.40;;;;;;4997980;28;20034;-82
2022/08/15 02:46:50;;;;;;;3.38;2.72;;;28.20;44.40;;;;;;4997461;28;20137;-83
2022/08/15 02:49:20;;;;;;;3.58;2.80;;;28.20;44.40;;;;;;4998527;28;20079;-83
2022/08/15 02:51:48;;;;;;;3.53;2.85;;;28.20;44.50;;;;;;4997622;28;20047;-85
2022/08/15 02:54:19;;;;;;;3.05;2.67;;;28.20;45.10;;;;;;5014427;28;20030;-83
2022/08/15 02:56:45;;;;;;;3.38;2.80;;;28.20;44.50;;;;;;4981652;28;20204;-82
2022/08/15 02:59:11;;;;;;;3.20;2.90;;;28.10;44.50;;;;;;4997938;28;20556;-83
2022/08/15 03:01:42;;;;;;;4.10;3.15;;;28.20;44.60;;;;;;4981533;28;20041;-83
2022/08/15 03:04:16;;;;;;;3.53;2.67;;;28.10;44.60;;;;;;4997920;28;20029;-84
2022/08/15 03:06:44;;;;;;;3.65;3.00;;;28.10;44.70;;;;;;4997772;28;20484;-83
2022/08/15 03:09:12;;;;;;;3.65;2.83;;;28.10;44.70;;;;;;4981452;28;20029;-84
2022/08/15 03:11:50;;;;;;;3.75;2.97;;;28.10;44.80;;;;;;4997649;28;20045;-84
2022/08/15 03:14:20;;;;;;;3.33;2.85;;;28.00;44.70;;;;;;4981670;28;20096;-82
2022/08/15 03:16:49;;;;;;;3.42;2.78;;;28.00;44.80;;;;;;4997136;28;20065;-83
2022/08/15 03:19:25;;;;;;;3.70;3.00;;;28.00;44.80;;;;;;4997804;28;20029;-82
2022/08/15 03:21:54;;;;;;;3.20;2.72;;;28.00;44.90;;;;;;4997965;28;20042;-83
2022/08/15 03:24:22;;;;;;;3.80;3.08;;;28.00;44.90;;;;;;4996995;28;20030;-83
2022/08/15 03:26:52;;;;;;;3.28;2.70;;;28.00;45.00;;;;;;4981827;28;20540;-84
2022/08/15 03:29:19;;;;;;;3.83;3.00;;;27.90;44.90;;;;;;4981224;28;20030;-81
2022/08/15 03:31:50;;;;;;;3.67;3.00;;;27.90;45.00;;;;;;4981052;28;20065;-83
2022/08/15 03:34:21;;;;;;;3.80;2.88;;;27.90;45.10;;;;;;4981539;28;20429;-82
2022/08/15 03:36:49;;;;;;;3.47;2.88;;;27.80;45.00;;;;;;4997069;28;20034;-83
2022/08/15 03:39:15;;;;;;;3.30;2.75;;;27.80;45.00;;;;;;4997001;28;20389;-82
2022/08/15 03:41:44;;;;;;;3.75;3.00;;;27.80;45.10;;;;;;4980824;28;20058;-83
2022/08/15 03:44:12;;;;;;;4.03;3.15;;;27.80;45.10;;;;;;4980943;28;20030;-82
2022/08/15 03:46:38;;;;;;;4.03;3.33;;;27.80;45.20;;;;;;4996961;28;20414;-84
2022/08/15 03:49:06;;;;;;;3.88;3.15;;;27.70;45.20;;;;;;4980962;28;20457;-84
2022/08/15 03:51:36;;;;;;;3.67;3.05;;;27.70;45.20;;;;;;4981223;28;20116;-82
2022/08/15 03:54:07;;;;;;;4.25;3.17;;;27.70;45.30;;;;;;4981326;28;20026;-83
2022/08/15 03:56:35;;;;;;;3.40;2.90;;;27.70;45.30;;;;;;4996825;28;20128;-82
2022/08/15 03:59:04;;;;;;;3.83;3.10;;;27.70;45.40;;;;;;4997413;28;20029;-82
2022/08/15 04:01:34;;;;;;;5.35;3.20;;;27.60;45.40;;;;;;4980340;28;20049;-83
2022/08/15 04:04:04;;;;;;;3.97;3.30;;;27.60;45.40;;;;;;4981311;28;20037;-82
2022/08/15 04:06:40;;;;;;;4.13;3.10;;;27.60;45.40;;;;;;4996589;28;20289;-82
2022/08/15 04:09:07;;;;;;;3.53;3.10;;;27.50;45.40;;;;;;4996634;28;20042;-82
2022/08/15 04:11:34;;;;;;;3.72;3.03;;;27.50;45.40;;;;;;4964594;28;20129;-83
2022/08/15 04:14:06;;;;;;;4.95;3.55;;;27.50;45.60;;;;;;5004552;28;20121;-82
2022/08/15 04:16:33;;;;;;;4.20;3.20;;;27.40;45.50;;;;;;4994441;28;20037;-85
2022/08/15 04:18:58;;;;;;;4.28;3.42;;;27.40;45.60;;;;;;4991236;28;20355;-82
2022/08/15 04:21:28;;;;;;;4.30;3.30;;;27.40;45.60;;;;;;4981342;28;20037;-82
2022/08/15 04:23:54;;;;;;;5.05;3.50;;;27.30;45.60;;;;;;4996147;28;20529;-82
2022/08/15 04:26:20;;;;;;;4.32;3.10;;;27.30;45.60;;;;;;4996773;28;20081;-82
2022/08/15 04:28:46;;;;;;;3.97;3.22;;;27.30;45.70;;;;;;4979875;28;20036;-82
2022/08/15 04:31:17;;;;;;;3.85;2.92;;;27.30;45.70;;;;;;4996165;28;20038;-82
2022/08/15 04:33:48;;;;;;;4.10;3.30;;;27.20;45.80;;;;;;4980347;28;20088;-85
2022/08/15 04:36:18;;;;;;;4.90;3.58;;;27.20;45.80;;;;;;4980427;28;20058;-82
2022/08/15 04:38:47;;;;;;;5.28;3.83;;;27.20;45.80;;;;;;4979500;28;20037;-82
2022/08/15 04:41:13;;;;;;;4.15;3.40;;;27.20;45.90;;;;;;4980497;28;20038;-85
2022/08/15 04:43:43;;;;;;;4.05;3.38;;;27.20;45.90;;;;;;4996578;28;20034;-81
2022/08/15 04:46:13;;;;;;;3.72;3.00;;;27.20;46.00;;;;;;4980276;28;20191;-78
2022/08/15 04:48:44;;;;;;;4.28;3.53;;;27.10;45.90;;;;;;4995615;28;20034;-80
2022/08/15 04:51:11;;;;;;;5.15;3.75;;;27.10;46.00;;;;;;4980010;28;20061;-81
2022/08/15 04:53:40;;;;;;;3.95;3.33;;;27.10;46.00;;;;;;4964223;28;20050;-82
2022/08/15 04:56:10;;;;;;;5.30;3.85;;;27.00;46.10;;;;;;4980519;28;20033;-82
2022/08/15 04:58:38;;;;;;;4.85;3.92;;;27.00;46.10;;;;;;4996031;28;20034;-81
2022/08/15 05:01:11;;;;;;;4.45;3.60;;;27.00;46.20;;;;;;4995596;28;20389;-83
2022/08/15 05:03:57;;;;;;;3.63;3.17;;;27.00;46.20;;;;;;4997864;28;20494;-81
2022/08/15 05:06:26;;;;;;;4.35;3.47;;;27.00;46.20;;;;;;4980055;28;20108;-81
2022/08/15 05:08:53;;;;;;;4.97;3.90;;;26.90;46.20;;;;;;4979651;28;20041;-82
2022/08/15 05:11:22;;;;;;;4.80;3.72;;;26.90;46.30;;;;;;4996196;28;20057;-81
2022/08/15 05:13:55;;;;;;;6.25;3.85;;;26.90;46.30;;;;;;4980742;28;20033;-81
2022/08/15 05:16:30;;;;;;;4.35;3.55;;;26.90;46.30;;;;;;4981641;28;20029;-81
2022/08/15 05:18:56;;;;;;;4.75;3.65;;;26.90;46.40;;;;;;4967879;28;20076;-80
2022/08/15 05:21:22;;;;;;;4.82;4.00;;;26.80;46.40;;;;;;4999309;28;20033;-79
2022/08/15 05:23:51;;;;;;;5.40;4.00;;;26.80;46.40;;;;;;4984353;28;20046;-80
2022/08/15 05:26:22;;;;;;;4.32;3.50;;;26.80;46.50;;;;;;4999773;28;20053;-80
2022/08/15 05:28:48;;;;;;;4.90;4.13;;;26.80;46.50;;;;;;4998979;28;20041;-79
2022/08/15 05:31:14;;;;;;;5.13;4.38;;;26.80;46.60;;;;;;4982698;28;20040;-78
2022/08/15 05:33:44;;;;;;;4.65;3.88;;;26.70;46.50;;;;;;4998805;28;20053;-80
2022/08/15 05:36:13;;;;;;;4.50;3.92;;;26.80;46.60;;;;;;5016282;28;20080;-83
2022/08/15 05:38:48;;;;;;;4.78;4.05;;;26.70;46.60;;;;;;4998930;28;20077;-81
2022/08/15 05:41:32;;;;;;;4.68;3.88;;;26.70;46.60;;;;;;4983718;28;20034;-81
2022/08/15 05:44:05;;;;;;;4.78;3.78;;;26.70;46.70;;;;;;4998636;28;20022;-82
2022/08/15 05:46:42;;;;;;;4.60;3.78;;;26.70;46.60;;;;;;4998568;28;20046;-82
2022/08/15 05:49:28;;;;;;;4.75;3.78;;;26.60;46.60;;;;;;4998866;28;20022;-82
2022/08/15 05:52:15;;;;;;;4.80;3.40;;;26.60;46.60;;;;;;4999128;28;20037;-82
2022/08/15 05:54:47;;;;;;;4.80;3.50;;;26.60;46.60;;;;;;4998819;28;20489;-81
2022/08/15 05:57:25;;;;;;;4.63;3.45;;;26.50;46.50;;;;;;4982035;28;20037;-82
2022/08/15 05:59:57;;;;;;;4.30;3.25;;;26.50;46.50;;;;;;4998077;28;20037;-82
2022/08/15 06:02:34;;;;;;;3.95;3.28;;;26.50;46.60;;;;;;4982498;28;20041;-82
2022/08/15 06:05:11;;;;;;;4.03;3.00;;;26.50;46.50;;;;;;4998774;28;20494;-80
2022/08/15 06:07:39;;;;;;;4.13;3.30;;;26.50;47.20;;;;;;5004455;28;20033;-82
2022/08/15 06:10:30;;;;;;;3.75;2.83;;;26.50;46.60;;;;;;5012174;28;20026;-82
2022/08/15 06:13:08;;;;;;;4.22;3.00;;;26.50;46.70;;;;;;4988780;28;20395;-81
2022/08/15 06:15:52;;;;;;;3.63;2.90;;;26.40;46.60;;;;;;4982525;28;20029;-83
2022/08/15 06:18:21;;;;;;;3.53;2.72;;;26.40;46.60;;;;;;4982116;28;20497;-82
2022/08/15 06:21:03;;;;;;;4.40;2.85;;;26.40;46.50;;;;;;4981871;28;20026;-82
2022/08/15 06:23:35;;;;;;;4.10;2.90;;;26.40;46.60;;;;;;4998137;28;20038;-82
2022/08/15 06:26:07;;;;;;;2.97;2.50;;;26.40;46.50;;;;;;4998480;28;20034;-82
2022/08/15 06:28:54;;;;;;;3.33;2.70;;;26.30;46.60;;;;;;4997283;28;20505;-84
2022/08/15 06:31:38;;;;;;;3.00;2.40;;;26.30;46.60;;;;;;4998317;28;20081;-80
2022/08/15 06:34:26;;;;;;;2.75;2.20;;;26.30;46.60;;;;;;4997624;28;20109;-85
2022/08/15 06:37:03;;;;;;;3.17;2.30;;;26.30;46.60;;;;;;4997856;28;20030;-82
2022/08/15 06:39:44;;;;;;;3.55;2.25;;;26.30;46.60;;;;;;5015224;28;20096;-80
2022/08/15 06:42:27;;;;;;;3.03;2.20;;;26.30;46.70;;;;;;4997696;28;20042;-81
2022/08/15 06:44:58;;;;;;;2.40;2.13;;;26.30;47.40;;;;;;4981501;28;20116;-81
2022/08/15 06:47:29;;;;;;;2.75;2.30;;;26.30;46.70;;;;;;4981315;28;20478;-82
2022/08/15 06:50:03;;;;;;;2.60;2.17;;;26.30;46.70;;;;;;4981505;28;20026;-80
2022/08/15 06:52:30;;;;;;;2.30;2.10;;;26.30;46.70;;;;;;4997288;28;20042;-82
2022/08/15 06:54:58;;;;;;;2.90;2.15;;;26.30;46.70;;;;;;4981070;28;20034;-81
2022/08/15 06:57:39;;;;;;;2.63;2.10;;;26.30;46.80;;;;;;4996914;28;20038;-81
2022/08/15 07:00:16;;;;;;;2.30;1.90;;;26.30;46.90;;;;;;4980846;28;20025;-82
2022/08/15 07:03:23;;;;;;;2.30;2.00;;;26.30;46.90;;;;;;4982550;28;20038;-81
2022/08/15 07:05:54;;;;;;;1.95;1.75;;;26.30;46.90;;;;;;4997084;28;20037;-81
2022/08/15 07:08:55;;;;;;;2.38;2.08;;;26.30;46.90;;;;;;4996976;28;20548;-82
2022/08/15 07:11:28;;;;;;;1.90;1.70;;;26.30;47.00;;;;;;4980939;28;20037;-81
2022/08/15 07:14:07;;;;;;;2.38;1.92;;;26.30;46.90;;;;;;4981694;28;20348;-83
2022/08/15 07:16:42;;;;;;;2.03;1.83;;;26.30;47.00;;;;;;4997274;28;20463;-83
2022/08/15 07:19:10;;;;;;;2.10;1.88;;;26.30;46.90;;;;;;4981249;28;20060;-84
2022/08/15 07:21:45;;;;;;;2.13;1.90;;;26.30;47.00;;;;;;4983521;28;20044;-83
2022/08/15 07:24:26;;;;;;;2.45;1.90;;;26.30;47.00;;;;;;4997175;28;20042;-82
2022/08/15 07:27:04;;;;;;;2.47;1.95;;;26.30;47.10;;;;;;4996958;28;20129;-84
2022/08/15 07:29:37;;;;;;;1.98;1.67;;;26.30;47.10;;;;;;4996769;28;20033;-84
2022/08/15 07:32:14;;;;;;;2.05;1.75;;;26.30;47.00;;;;;;4996217;28;20065;-84
2022/08/15 07:35:05;;;;;;;2.30;1.75;;;26.30;47.00;;;;;;4997276;28;20026;-83
2022/08/15 07:37:37;;;;;;;2.40;1.73;;;26.30;47.10;;;;;;4980142;28;20125;-84
2022/08/15 07:40:19;;;;;;;2.20;1.83;;;26.40;47.10;;;;;;4980105;28;20192;-84
2022/08/15 07:42:45;;;;;;;2.00;1.80;;;26.40;47.10;;;;;;4996163;28;20037;-83
2022/08/15 07:45:17;;;;;;;2.22;1.85;;;26.40;47.00;;;;;;4997305;28;20030;-83
2022/08/15 07:48:17;;;;;;;2.05;1.77;;;26.40;47.10;;;;;;4996104;28;20052;-84
2022/08/15 07:50:45;;;;;;;2.10;1.85;;;26.40;47.20;;;;;;4980555;28;20033;-84
2022/08/15 07:53:20;;;;;;;2.30;1.80;;;26.40;47.00;;;;;;4980856;28;20037;-83
2022/08/15 07:56:06;;;;;;;1.98;1.60;;;26.50;47.10;;;;;;4981178;28;20045;-84
2022/08/15 07:58:34;;;;;;;1.73;1.58;;;26.50;47.20;;;;;;5007103;28;20029;-82
2022/08/15 08:01:21;;;;;;;1.73;1.63;;;26.50;47.10;;;;;;5013604;28;20030;-86
2022/08/15 08:03:55;;;;;;;1.63;1.52;;;26.50;47.10;;;;;;4997328;28;20116;-84
2022/08/15 08:06:36;;;;;;;1.63;1.52;;;26.50;47.10;;;;;;4983333;28;20032;-82
2022/08/15 08:09:29;;;;;;;1.73;1.50;;;26.60;47.20;;;;;;4980591;28;20030;-83
2022/08/15 08:12:22;;;;;;;3.10;1.90;;;26.60;47.20;;;;;;4980464;28;20157;-83
2022/08/15 08:15:19;;;;;;;1.70;1.60;;;26.60;47.20;;;;;;4996967;28;20042;-83
2022/08/15 08:17:56;;;;;;;1.92;1.70;;;26.60;47.20;;;;;;4979096;28;20038;-83
2022/08/15 08:20:55;;;;;;;2.00;1.70;;;26.60;47.20;;;;;;4980129;28;20068;-83
2022/08/15 08:23:33;;;;;;;1.65;1.52;;;26.70;47.30;;;;;;4980230;28;20393;-83
2022/08/15 08:26:26;;;;;;;1.95;1.60;;;26.70;47.20;;;;;;4996323;28;20022;-83
2022/08/15 08:29:07;;;;;;;1.73;1.42;;;26.70;47.20;;;;;;4988356;28;20037;-83
2022/08/15 08:31:58;;;;;;;2.95;1.85;;;26.70;47.20;;;;;;4995851;28;20038;-84
2022/08/15 08:34:50;;;;;;;1.60;1.50;;;26.80;47.30;;;;;;4979688;28;20034;-83
2022/08/15 08:37:31;;;;;;;1.73;1.50;;;26.80;47.30;;;;;;4996753;28;20133;-83
2022/08/15 08:43:03;;;;;;;1.65;1.50;;;26.90;47.30;;;;;;4995958;28;20369;-84
2022/08/15 08:45:42;;;;;;;1.80;1.60;;;26.90;47.30;;;;;;4996081;28;20394;-83
2022/08/15 08:48:20;;;;;;;1.92;1.60;;;27.00;47.40;;;;;;4979254;28;20056;-84
2022/08/15 08:50:52;;;;;;;2.28;1.60;;;26.90;47.20;;;;;;5014504;28;20045;-84
2022/08/15 08:53:32;;;;;;;2.20;1.80;;;27.00;47.30;;;;;;5016971;28;20065;-83
2022/08/15 08:56:06;;;;;;;1.67;1.58;;;27.00;47.40;;;;;;5001171;28;20029;-84
2022/08/15 08:58:42;;;;;;;2.40;1.90;;;27.00;47.30;;;;;;5020390;28;20127;-83
2022/08/15 09:01:12;;;;;;;2.05;1.60;;;27.10;47.30;;;;;;5021579;28;20478;-83
2022/08/15 09:03:46;;;;;;;2.20;1.70;;;27.10;47.20;;;;;;5004111;28;20037;-83
2022/08/15 09:06:18;;;;;;;1.63;1.50;;;27.10;47.30;;;;;;5022172;28;20107;-83
2022/08/15 09:08:51;;;;;;;1.60;1.50;;;27.10;47.20;;;;;;5004802;28;20033;-81
2022/08/15 09:11:19;;;;;;;1.63;1.48;;;27.20;47.30;;;;;;5006672;28;20026;-84
2022/08/15 09:13:46;;;;;;;2.60;1.67;;;27.20;47.30;;;;;;5006402;28;20037;-82
2022/08/15 09:16:34;;;;;;;2.15;1.58;;;27.20;47.30;;;;;;4989085;28;20026;-83
2022/08/15 09:19:24;;;;;;;2.10;1.73;;;27.30;47.40;;;;;;5010387;28;20061;-84
2022/08/15 09:21:51;;;;;;;2.85;1.80;;;27.30;47.40;;;;;;5011261;28;20037;-84
2022/08/15 09:24:20;;;;;;;1.70;1.50;;;27.30;47.20;;;;;;4978773;28;20037;-84
2022/08/15 09:27:10;;;;;;;1.60;1.40;;;27.40;47.20;;;;;;5008363;28;20026;-84
2022/08/15 09:29:43;;;;;;;1.98;1.70;;;27.40;47.30;;;;;;5003536;28;20057;-84
2022/08/15 09:32:17;;;;;;;2.17;1.67;;;27.50;47.20;;;;;;5002221;28;20033;-85
2022/08/15 09:34:58;;;;;;;1.77;1.60;;;27.50;47.20;;;;;;5018408;28;20044;-84
2022/08/15 09:38:00;;;;;;;2.10;1.50;;;27.50;47.20;;;;;;5000788;28;20052;-83
2022/08/15 09:40:44;;;;;;;2.05;1.73;;;27.60;47.90;;;;;;5018146;28;20022;-83
2022/08/15 09:43:44;;;;;;;1.90;1.52;;;27.60;47.10;;;;;;5017495;28;20064;-84
2022/08/15 09:46:13;;;;;;;2.03;1.70;;;27.70;47.20;;;;;;5001670;28;20044;-84
2022/08/15 09:49:20;;;;;;;1.95;1.52;;;27.70;47.00;;;;;;5017332;28;20061;-84
2022/08/15 09:51:57;;;;;;;1.63;1.52;;;27.70;47.10;;;;;;5011345;28;20068;-85
2022/08/15 09:54:30;;;;;;;2.10;1.83;;;27.80;47.00;;;;;;4999591;28;20042;-85
2022/08/15 09:57:17;;;;;;;1.70;1.60;;;27.80;47.00;;;;;;4998960;28;20022;-84
2022/08/15 09:59:44;;;;;;;3.00;1.70;;;27.80;47.10;;;;;;5016448;28;20034;-85
2022/08/15 10:02:15;;;;;;;2.63;1.65;;;27.90;47.00;;;;;;4982604;28;20022;-83
2022/08/15 10:04:55;;;;;;;2.15;1.70;;;27.90;47.10;;;;;;4999058;28;20183;-82
2022/08/15 10:07:42;;;;;;;3.00;1.88;;;27.90;47.10;;;;;;4982083;28;20133;-82
2022/08/15 10:10:42;;;;;;;2.13;1.67;;;27.90;47.10;;;;;;4998837;28;20026;-89
2022/08/15 10:13:44;;;;;;;2.58;1.63;;;28.00;47.10;;;;;;4983477;28;20038;-89
2022/08/15 10:16:50;;;;;;;1.75;1.63;;;28.00;47.00;;;;;;5000144;28;20036;-87
2022/08/15 10:19:27;;;;;;;2.22;1.85;;;28.00;47.10;;;;;;4940320;29;20031;-90
2022/08/15 10:21:58;;;;;;;2.40;1.90;;;28.00;47.10;;;;;;4993610;28;20502;-91
2022/08/15 10:24:32;;;;;;;2.00;1.75;;;28.00;47.00;;;;;;4999719;28;20124;-83
2022/08/15 10:27:08;;;;;;;3.47;2.00;;;28.10;47.10;;;;;;4998570;28;20030;-87
2022/08/15 10:29:37;;;;;;;2.40;1.83;;;28.10;47.20;;;;;;5003784;28;20026;-91
2022/08/15 10:32:04;;;;;;;2.38;1.98;;;28.10;47.10;;;;;;4990147;28;20073;-92
2022/08/15 10:34:41;;;;;;;4.85;2.22;;;28.10;47.10;;;;;;5000728;28;20034;-86
2022/08/15 10:37:29;;;;;;;3.65;2.20;;;28.10;47.20;;;;;;5021710;28;20077;-87
2022/08/15 10:40:32;;;;;;;2.15;1.83;;;28.10;47.30;;;;;;5020598;28;20028;-86
2022/08/15 10:43:06;;;;;;;2.88;2.03;;;28.10;47.30;;;;;;5008383;28;20038;-88
2022/08/15 10:45:59;;;;;;;2.60;2.00;;;28.10;47.30;;;;;;5000126;28;20029;-88
2022/08/15 10:48:34;;;;;;;1.85;1.73;;;28.10;47.30;;;;;;4999725;28;20053;-90
2022/08/15 10:51:44;;;;;;;2.45;1.90;;;28.10;47.30;;;;;;4999152;28;20052;-84
2022/08/15 10:54:23;;;;;;;2.95;2.20;;;28.10;47.40;;;;;;5017490;28;20100;-89
2022/08/15 10:56:54;;;;;;;3.20;2.03;;;28.10;47.40;;;;;;5015326;28;20026;-82
2022/08/15 10:59:25;;;;;;;2.63;2.10;;;28.10;47.40;;;;;;4997658;28;20112;-83
2022/08/15 11:02:22;;;;;;;2.65;1.95;;;28.20;47.50;;;;;;5015458;28;20040;-83
2022/08/15 11:04:48;;;;;;;2.65;1.98;;;28.20;47.60;;;;;;4987031;28;20045;-82
2022/08/15 11:07:26;;;;;;;3.03;1.98;;;28.20;47.40;;;;;;4981615;28;20116;-82
2022/08/15 11:10:07;;;;;;;2.67;2.28;;;28.20;47.50;;;;;;5015314;28;20033;-83
2022/08/15 11:12:36;;;;;;;2.33;2.08;;;28.20;47.40;;;;;;4997784;28;20030;-83
2022/08/15 11:15:13;;;;;;;2.58;2.10;;;28.20;47.50;;;;;;4996762;28;20117;-83
2022/08/15 11:17:45;;;;;;;3.75;2.13;;;28.30;47.60;;;;;;4997734;28;20089;-83
2022/08/15 11:20:17;;;;;;;2.75;2.10;;;28.30;47.60;;;;;;4982498;28;20120;-90
2022/08/15 11:22:58;;;;;;;3.08;2.20;;;28.30;47.50;;;;;;4983875;28;20147;-88
2022/08/15 11:25:27;;;;;;;2.17;1.92;;;28.30;47.60;;;;;;4987675;28;20328;-88
2022/08/15 11:28:20;;;;;;;2.95;2.17;;;28.30;47.50;;;;;;5004190;28;20053;-88
2022/08/15 11:30:47;;;;;;;3.70;2.00;;;28.40;47.70;;;;;;5005852;28;20016;-84
2022/08/15 11:33:26;;;;;;;2.90;2.20;;;28.40;47.50;;;;;;5004828;28;20497;-87
2022/08/15 11:36:10;;;;;;;3.17;2.25;;;28.50;47.70;;;;;;5016532;28;20498;-89
2022/08/15 11:38:37;;;;;;;3.07;2.23;;;28.50;47.70;;;;;;4982905;28;20121;-87
2022/08/15 11:41:04;;;;;;;2.72;2.20;;;28.50;47.50;;;;;;5015778;28;20261;-85
2022/08/15 11:43:32;;;;;;;3.05;2.25;;;28.50;47.50;;;;;;4998197;28;20037;-86
2022/08/15 11:45:58;;;;;;;2.25;2.00;;;28.60;47.60;;;;;;4981993;28;20022;-86
2022/08/15 11:48:34;;;;;;;3.53;2.20;;;28.60;47.60;;;;;;5014816;28;20057;-82
2022/08/15 11:51:02;;;;;;;2.90;2.22;;;28.60;47.60;;;;;;5013702;28;20026;-83
2022/08/15 11:53:36;;;;;;;3.53;2.05;;;28.70;47.60;;;;;;4996204;28;20037;-83
2022/08/15 11:56:02;;;;;;;3.30;2.35;;;28.70;47.70;;;;;;4980727;28;20026;-84
2022/08/15 11:58:35;;;;;;;2.97;2.33;;;28.70;47.50;;;;;;4980381;28;20049;-83
2022/08/15 12:01:26;;;;;;;2.63;2.42;;;28.70;47.60;;;;;;4996962;28;20104;-85
2022/08/15 12:04:27;;;;;;;3.17;2.10;;;28.70;47.60;;;;;;4981073;28;20129;-83
2022/08/15 12:06:55;;;;;;;2.95;2.20;;;28.80;47.70;;;;;;5019616;28;20049;-84
2022/08/15 12:09:25;;;;;;;3.72;2.10;;;28.80;47.50;;;;;;4988925;28;20065;-83
2022/08/15 12:11:52;;;;;;;3.85;2.25;;;28.80;47.60;;;;;;4980627;28;20536;-84
2022/08/15 12:14:24;;;;;;;3.20;2.05;;;28.90;47.60;;;;;;5013618;28;20022;-83
2022/08/15 12:17:03;;;;;;;2.50;2.30;;;28.90;47.60;;;;;;4996275;28;20112;-84
2022/08/15 12:19:35;;;;;;;3.47;2.35;;;28.90;47.70;;;;;;4996726;28;20463;-84
2022/08/15 12:22:17;;;;;;;3.53;2.40;;;28.90;47.60;;;;;;4996101;28;20042;-84
2022/08/15 12:24:45;;;;;;;3.17;2.38;;;29.00;47.70;;;;;;4996204;28;20030;-83
2022/08/15 12:27:12;;;;;;;2.70;2.38;;;29.00;47.70;;;;;;5014004;28;20022;-81
2022/08/15 12:29:40;;;;;;;2.70;2.22;;;29.00;47.70;;;;;;4982266;28;20455;-89
2022/08/15 12:32:08;;;;;;;3.67;2.47;;;29.00;47.70;;;;;;4982550;28;20489;-89
2022/08/15 12:34:38;;;;;;;3.22;2.45;;;29.00;47.80;;;;;;4982380;28;20065;-85
2022/08/15 12:37:08;;;;;;;3.60;2.53;;;29.00;47.90;;;;;;4981268;28;20033;-86
2022/08/15 12:39:49;;;;;;;3.28;2.40;;;29.00;47.80;;;;;;5015187;28;20034;-86
2022/08/15 12:42:36;;;;;;;3.05;2.40;;;29.10;48.00;;;;;;4996791;28;20040;-84
2022/08/15 12:45:25;;;;;;;3.47;2.33;;;29.10;48.00;;;;;;4980070;28;20498;-85
2022/08/15 12:47:51;;;;;;;3.38;2.55;;;29.10;48.00;;;;;;4973022;28;20502;-84
2022/08/15 12:50:17;;;;;;;3.45;2.40;;;29.10;47.90;;;;;;4997242;28;20040;-84
2022/08/15 12:52:44;;;;;;;3.80;2.60;;;29.10;47.90;;;;;;4981636;28;20112;-85
2022/08/15 12:55:10;;;;;;;3.45;2.60;;;29.10;47.90;;;;;;4981899;28;20061;-85
2022/08/15 12:57:37;;;;;;;2.90;2.25;;;29.10;47.90;;;;;;4981954;28;20029;-84
2022/08/15 13:00:05;;;;;;;3.42;2.72;;;29.20;48.00;;;;;;4982665;28;20148;-84
2022/08/15 13:02:31;;;;;;;3.58;2.60;;;29.20;48.00;;;;;;4985844;28;20092;-85
2022/08/15 13:04:56;;;;;;;2.67;2.10;;;29.20;48.00;;;;;;4985982;28;20382;-85
2022/08/15 13:07:24;;;;;;;2.75;2.42;;;29.20;48.00;;;;;;4977905;28;20056;-85
2022/08/15 13:09:50;;;;;;;2.95;2.22;;;29.20;48.00;;;;;;4994626;28;20032;-84
2022/08/15 13:12:16;;;;;;;2.65;2.20;;;29.20;47.90;;;;;;4986963;28;20093;-84
2022/08/15 13:14:42;;;;;;;3.72;2.53;;;29.20;47.90;;;;;;5000616;28;20116;-84
2022/08/15 13:17:11;;;;;;;3.78;2.58;;;29.30;48.00;;;;;;4999218;28;20030;-83
2022/08/15 13:25:19;;;;;;;3.28;2.30;;;29.30;47.80;;;;;;4998399;28;20061;-83
2022/08/15 13:27:48;;;;;;;3.22;2.72;;;29.30;47.80;;;;;;4995300;28;20026;-83
2022/08/15 13:30:15;;;;;;;3.33;2.55;;;29.30;47.90;;;;;;4979088;28;20034;-83
2022/08/15 13:32:42;;;;;;;3.25;2.40;;;29.30;47.90;;;;;;4979312;28;20064;-83
2022/08/15 13:35:12;;;;;;;3.33;2.45;;;29.30;47.90;;;;;;4980299;28;20385;-83
2022/08/15 13:37:39;;;;;;;2.97;2.40;;;29.30;47.90;;;;;;4980369;28;20469;-83